Time;durP1;ratioP1;P1;durP2;ratioP2;P2;SDS_P1;SDS_P2;PMS_P1;PMS_P2;Temp;Humidity;BMP_temperature;BMP_pressure;BME280_temperature;BME280_humidity;BME280_pressure;Samples;Min_cycle;Max_cycle;Signal;HPM_P1;HPM_P2
2023/08/18 00:00:31;;;;;;;4.65;2.05;;;;;;;21.17;84.33;101376.00;2041458;28;20048;-74
2023/08/18 00:01:33;;;;;;;6.72;2.00;;;;;;;21.19;84.43;101379.22;2056692;28;20039;-75
2023/08/18 00:02:37;;;;;;;5.57;2.03;;;;;;;21.17;84.13;101376.78;2056958;28;20035;-74
2023/08/18 00:03:40;;;;;;;4.85;2.10;;;;;;;21.17;84.18;101373.25;2041545;28;20036;-74
2023/08/18 00:04:44;;;;;;;3.10;1.73;;;;;;;21.14;84.08;101371.97;2041026;28;20847;-74
2023/08/18 00:05:48;;;;;;;4.97;1.83;;;;;;;21.15;84.15;101375.50;2048909;28;20070;-75
2023/08/18 00:06:54;;;;;;;6.72;2.15;;;;;;;21.14;84.16;101373.91;2052247;28;20024;-75
2023/08/18 00:07:56;;;;;;;3.95;1.88;;;;;;;21.14;84.19;101376.66;2045684;28;20044;-75
2023/08/18 00:08:57;;;;;;;5.38;2.20;;;;;;;21.16;84.15;101379.88;2045421;28;20031;-75
2023/08/18 00:10:05;;;;;;;3.40;1.85;;;;;;;21.17;84.01;101387.72;2049358;28;20054;-74
2023/08/18 00:11:08;;;;;;;3.15;1.90;;;;;;;21.15;84.07;101387.25;2062148;28;20023;-75
2023/08/18 00:12:10;;;;;;;6.07;1.80;;;;;;;21.15;84.08;101389.19;2064364;28;20035;-75
2023/08/18 00:13:16;;;;;;;5.50;1.83;;;;;;;21.17;83.88;101386.94;2049892;28;20823;-74
2023/08/18 00:14:18;;;;;;;3.28;1.98;;;;;;;21.18;83.87;101391.25;2042068;28;20147;-74
2023/08/18 00:15:23;;;;;;;4.75;1.90;;;;;;;21.15;83.70;101391.91;2061834;28;20090;-74
2023/08/18 00:16:28;;;;;;;3.55;2.00;;;;;;;21.16;83.93;101393.53;2056653;28;20041;-75
2023/08/18 00:17:32;;;;;;;3.78;1.85;;;;;;;21.15;83.86;101394.66;2064857;28;20790;-74
2023/08/18 00:18:34;;;;;;;4.00;2.00;;;;;;;21.14;83.92;101393.84;2056524;28;20086;-75
2023/08/18 00:19:39;;;;;;;4.60;1.90;;;;;;;21.15;83.69;101391.91;2055426;28;20858;-75
2023/08/18 00:20:43;;;;;;;4.45;1.80;;;;;;;21.15;83.89;101391.91;2047390;28;20806;-74
2023/08/18 00:21:47;;;;;;;5.93;1.98;;;;;;;21.13;83.94;101394.19;2048622;28;20043;-74
2023/08/18 00:22:51;;;;;;;4.63;1.85;;;;;;;21.12;83.85;101384.38;2048525;28;20154;-74
2023/08/18 00:23:56;;;;;;;7.10;1.98;;;;;;;21.09;84.07;101387.75;2041937;28;20067;-73
2023/08/18 00:24:58;;;;;;;3.38;2.10;;;;;;;21.09;83.92;101394.06;2056901;28;20141;-72
2023/08/18 00:25:59;;;;;;;5.82;1.80;;;;;;;21.10;84.16;101397.59;2056621;28;20041;-72
2023/08/18 00:27:01;;;;;;;4.18;2.10;;;;;;;21.12;84.13;101400.78;2056874;28;20221;-72
2023/08/18 00:28:05;;;;;;;7.43;1.90;;;;;;;21.11;84.01;101394.50;2037861;28;20046;-73
2023/08/18 00:29:09;;;;;;;9.05;1.90;;;;;;;21.12;84.08;101390.63;2047905;28;20125;-73
2023/08/18 00:30:14;;;;;;;5.47;1.98;;;;;;;21.10;84.10;101392.13;2048746;28;20031;-73
2023/08/18 00:31:20;;;;;;;13.27;2.00;;;;;;;21.11;84.39;101399.97;2034126;28;20033;-73
2023/08/18 00:32:25;;;;;;;5.32;2.60;;;;;;;21.10;84.25;101392.91;2034982;28;20955;-73
2023/08/18 00:33:27;;;;;;;6.03;2.10;;;;;;;21.10;84.32;101398.38;2041342;28;20028;-73
2023/08/18 00:34:31;;;;;;;6.22;1.88;;;;;;;21.12;84.43;101400.78;2048124;28;20035;-73
2023/08/18 00:35:32;;;;;;;6.50;2.15;;;;;;;21.11;84.46;101393.72;2056284;28;20042;-73
2023/08/18 00:36:36;;;;;;;6.07;1.90;;;;;;;21.12;84.25;101395.31;2064741;28;20041;-74
2023/08/18 00:37:39;;;;;;;6.45;1.85;;;;;;;21.13;84.35;101391.47;2056436;28;20027;-74
2023/08/18 00:38:43;;;;;;;6.03;2.22;;;;;;;21.07;84.53;101393.56;2056902;28;20031;-74
2023/08/18 00:39:47;;;;;;;8.90;2.60;;;;;;;20.99;85.00;101381.53;2041070;28;20043;-74
2023/08/18 00:40:48;;;;;;;9.20;2.33;;;;;;;20.94;85.24;101384.47;2043785;28;20031;-74
2023/08/18 00:41:50;;;;;;;4.90;2.30;;;;;;;20.92;85.41;101385.91;2053185;28;20889;-75
2023/08/18 00:42:57;;;;;;;5.43;2.30;;;;;;;20.87;85.93;101386.91;2056834;28;20032;-74
2023/08/18 00:44:01;;;;;;;6.05;2.50;;;;;;;20.86;86.23;101381.75;2056746;28;20019;-75
2023/08/18 00:45:02;;;;;;;6.50;2.47;;;;;;;20.81;86.38;101377.31;2058078;28;20146;-75
2023/08/18 00:46:04;;;;;;;7.03;2.30;;;;;;;20.75;86.95;101373.13;2050255;28;20963;-75
2023/08/18 00:47:08;;;;;;;5.97;2.40;;;;;;;20.65;87.45;101370.75;2050151;28;20048;-74
2023/08/18 00:48:10;;;;;;;9.38;2.53;;;;;;;20.58;88.17;101377.50;2050934;28;20031;-74
2023/08/18 00:49:15;;;;;;;5.68;2.38;;;;;;;20.50;88.34;101370.13;2066053;28;20031;-75
2023/08/18 00:50:23;;;;;;;6.15;2.50;;;;;;;20.44;89.05;101360.50;2058790;28;20130;-74
2023/08/18 00:51:25;;;;;;;8.23;3.17;;;;;;;20.41;89.40;101361.16;2051150;28;20161;-74
2023/08/18 00:52:27;;;;;;;8.05;2.88;;;;;;;20.37;89.67;101363.75;2049952;28;20055;-75
2023/08/18 00:53:35;;;;;;;6.68;2.42;;;;;;;20.34;90.24;101358.13;2050785;28;20044;-74
2023/08/18 00:54:39;;;;;;;10.82;3.22;;;;;;;20.28;90.70;101362.97;2041753;29;20036;-75
2023/08/18 00:57:11;;;;;;;6.22;2.28;;;;;;;20.32;91.29;101368.56;2066180;28;20058;-74
2023/08/18 00:58:17;;;;;;;5.60;2.60;;;;;;;20.36;91.01;101364.03;2041990;28;20074;-74
2023/08/18 00:59:22;;;;;;;6.63;2.70;;;;;;;20.40;91.07;101365.03;2051499;28;20048;-74
2023/08/18 01:00:27;;;;;;;4.13;2.53;;;;;;;20.45;91.05;101361.31;2057603;28;20032;-74
2023/08/18 01:01:30;;;;;;;6.78;2.50;;;;;;;20.48;91.19;101358.72;2043572;28;20139;-72
2023/08/18 01:02:35;;;;;;;4.18;2.28;;;;;;;20.52;90.86;101358.91;2050449;28;20051;-73
2023/08/18 01:03:39;;;;;;;4.95;2.33;;;;;;;20.55;90.74;101348.16;2042705;28;20030;-73
2023/08/18 01:04:41;;;;;;;5.32;2.50;;;;;;;20.59;90.71;101354.53;2050334;28;20863;-73
2023/08/18 01:05:42;;;;;;;6.70;2.58;;;;;;;20.59;90.50;101354.53;2049920;28;20039;-72
2023/08/18 01:06:44;;;;;;;3.70;2.20;;;;;;;20.62;90.44;101349.53;2058133;28;20146;-73
2023/08/18 01:07:49;;;;;;;7.43;2.22;;;;;;;20.66;90.35;101353.25;2063898;28;20925;-72
2023/08/18 01:08:53;;;;;;;4.35;2.15;;;;;;;20.69;90.03;101349.84;2042793;28;21436;-73
2023/08/18 01:09:55;;;;;;;3.25;1.95;;;;;;;20.71;89.88;101348.41;2041908;28;20057;-73
2023/08/18 01:11:08;;;;;;;8.60;2.42;;;;;;;20.73;90.01;101359.78;2041865;28;20036;-73
2023/08/18 01:12:28;;;;;;;5.47;2.28;;;;;;;20.75;89.78;101362.22;2043857;28;20047;-73
2023/08/18 01:13:58;;;;;;;5.47;2.30;;;;;;;20.77;89.73;101357.19;2052356;28;20071;-72
2023/08/18 01:15:12;;;;;;;4.60;2.22;;;;;;;20.80;89.44;101362.00;2049747;28;20040;-73
2023/08/18 01:16:21;;;;;;;5.70;2.50;;;;;;;20.83;89.18;101366.81;2051798;28;20039;-73
2023/08/18 01:17:54;;;;;;;5.47;2.10;;;;;;;20.85;89.09;101356.38;2056730;28;20095;-73
2023/08/18 01:19:03;;;;;;;6.28;2.25;;;;;;;20.84;89.14;101341.13;2057639;28;20042;-74
2023/08/18 01:20:10;;;;;;;5.65;2.00;;;;;;;20.88;89.02;101352.97;2056933;28;20861;-73
2023/08/18 01:21:13;;;;;;;6.53;2.30;;;;;;;20.90;88.85;101345.25;2049329;28;20827;-73
2023/08/18 01:22:22;;;;;;;5.97;2.38;;;;;;;20.89;88.75;101346.38;2050170;28;20899;-74
2023/08/18 01:23:39;;;;;;;5.45;2.40;;;;;;;20.90;88.73;101345.25;2053986;28;20073;-72
2023/08/18 01:24:44;;;;;;;6.15;2.22;;;;;;;20.92;88.74;101342.97;2052603;28;20044;-72
2023/08/18 01:25:46;;;;;;;5.20;2.13;;;;;;;20.94;88.76;101340.72;2057854;28;20926;-72
2023/08/18 01:26:48;;;;;;;8.25;3.00;;;;;;;20.93;88.43;101339.13;2066278;28;20108;-73
2023/08/18 01:27:50;;;;;;;6.05;2.40;;;;;;;20.94;88.45;101340.72;2057496;28;20854;-73
2023/08/18 01:28:53;;;;;;;4.95;2.30;;;;;;;20.95;88.38;101336.84;2049919;28;20038;-72
2023/08/18 01:29:57;;;;;;;5.35;2.72;;;;;;;20.95;88.29;101336.84;2041797;28;20065;-72
2023/08/18 01:31:06;;;;;;;4.57;2.10;;;;;;;20.94;88.18;101332.53;2049918;28;20031;-72
2023/08/18 01:32:11;;;;;;;5.50;2.20;;;;;;;20.94;88.33;101340.72;2041898;28;20048;-72
2023/08/18 01:33:24;;;;;;;4.25;2.30;;;;;;;20.94;88.36;101338.00;2050576;28;20142;-72
2023/08/18 01:34:29;;;;;;;6.53;2.47;;;;;;;20.93;88.16;101341.88;2048289;28;20871;-72
2023/08/18 01:35:34;;;;;;;5.20;2.42;;;;;;;20.93;88.11;101327.38;2041794;29;20052;-72
2023/08/18 01:36:39;;;;;;;7.60;2.45;;;;;;;20.95;88.01;101336.06;2027381;29;20758;-72
2023/08/18 01:37:43;;;;;;;6.05;2.65;;;;;;;20.95;87.95;101330.59;2042280;28;20043;-72
2023/08/18 01:38:50;;;;;;;5.00;2.00;;;;;;;20.96;87.91;101330.25;2050962;28;20134;-72
2023/08/18 01:39:59;;;;;;;4.28;2.22;;;;;;;20.97;88.04;101317.41;2049639;28;20090;-72
2023/08/18 01:41:03;;;;;;;4.82;2.45;;;;;;;20.97;87.76;101326.41;2050130;28;20032;-72
2023/08/18 01:42:08;;;;;;;3.47;2.00;;;;;;;20.98;87.92;101319.78;2049941;28;20799;-72
2023/08/18 01:43:13;;;;;;;5.72;2.13;;;;;;;20.99;87.93;101318.66;2049939;28;20038;-72
2023/08/18 01:44:18;;;;;;;3.72;2.10;;;;;;;20.99;87.88;101321.38;2042420;28;20071;-73
2023/08/18 01:45:21;;;;;;;5.00;2.10;;;;;;;21.01;87.89;101313.66;2049468;28;20044;-73
2023/08/18 01:46:23;;;;;;;5.43;2.33;;;;;;;21.00;87.78;101308.53;2042050;28;20224;-73
2023/08/18 01:47:28;;;;;;;3.33;2.20;;;;;;;20.99;87.96;101315.91;2041546;28;20048;-73
2023/08/18 01:48:29;;;;;;;9.00;2.30;;;;;;;21.00;87.92;101306.59;2042739;28;20032;-73
2023/08/18 01:49:31;;;;;;;4.13;2.25;;;;;;;21.01;87.77;101313.66;2049892;28;20032;-73
2023/08/18 01:50:33;;;;;;;3.80;2.47;;;;;;;21.00;87.90;101309.34;2049515;28;20046;-73
2023/08/18 01:51:39;;;;;;;6.22;2.58;;;;;;;21.02;87.91;101309.00;2049869;28;20019;-73
2023/08/18 01:52:43;;;;;;;9.25;3.20;;;;;;;21.00;87.90;101306.59;2034340;29;20044;-73
2023/08/18 01:53:45;;;;;;;4.95;2.60;;;;;;;21.01;87.85;101308.19;2042718;28;20730;-72
2023/08/18 01:54:46;;;;;;;5.50;2.65;;;;;;;21.00;87.94;101305.81;2041429;29;20914;-73
2023/08/18 01:55:48;;;;;;;6.22;2.42;;;;;;;21.02;87.86;101303.53;2049148;28;20030;-73
2023/08/18 01:56:53;;;;;;;7.72;2.78;;;;;;;21.03;87.85;101302.41;2049333;28;20067;-72
2023/08/18 01:57:55;;;;;;;6.95;2.72;;;;;;;21.03;87.98;101300.47;2034612;29;20143;-73
2023/08/18 01:58:57;;;;;;;6.40;2.63;;;;;;;21.03;87.88;101299.69;2041610;28;20052;-73
2023/08/18 02:00:05;;;;;;;6.22;2.40;;;;;;;21.03;87.79;101294.22;2050127;28;20032;-74
2023/08/18 02:01:18;;;;;;;5.90;2.42;;;;;;;21.02;87.88;101296.13;2057181;28;20031;-73
2023/08/18 02:02:20;;;;;;;7.43;2.55;;;;;;;21.04;87.95;101288.41;2049844;28;20035;-72
2023/08/18 02:03:26;;;;;;;6.28;2.78;;;;;;;21.03;87.99;101289.53;2041911;28;20047;-72
2023/08/18 02:04:27;;;;;;;7.03;2.95;;;;;;;21.01;88.00;101285.53;2042708;28;20094;-72
2023/08/18 02:05:31;;;;;;;5.28;2.53;;;;;;;21.02;87.88;101287.13;2049481;28;20066;-73
2023/08/18 02:06:33;;;;;;;10.10;2.88;;;;;;;21.03;87.91;101296.94;2033872;29;20083;-73
2023/08/18 02:07:37;;;;;;;7.05;2.55;;;;;;;21.01;87.98;101289.06;2032337;29;20041;-72
2023/08/18 02:08:39;;;;;;;7.20;2.58;;;;;;;21.03;88.00;101289.53;2042788;28;20103;-73
2023/08/18 02:09:46;;;;;;;6.38;2.65;;;;;;;21.03;88.00;101289.53;2049390;28;20957;-73
2023/08/18 02:10:50;;;;;;;6.10;2.50;;;;;;;21.04;88.37;101288.41;2042449;28;20902;-72
2023/08/18 02:11:54;;;;;;;5.70;2.20;;;;;;;21.04;87.89;101276.66;2041945;28;20179;-72
2023/08/18 02:12:58;;;;;;;4.32;2.28;;;;;;;21.05;88.19;101292.72;2042309;28;20101;-72
2023/08/18 02:14:00;;;;;;;8.27;2.70;;;;;;;21.04;88.17;101282.13;2049571;28;20035;-72
2023/08/18 02:15:04;;;;;;;6.05;2.55;;;;;;;21.02;87.95;101285.19;2042046;28;20040;-73
2023/08/18 02:16:09;;;;;;;8.48;2.90;;;;;;;21.04;88.08;101291.13;2041928;28;20046;-74
2023/08/18 02:17:12;;;;;;;7.35;2.50;;;;;;;21.04;87.87;101296.59;2049324;28;20046;-74
2023/08/18 02:18:14;;;;;;;3.60;2.50;;;;;;;21.05;87.97;101300.94;2057502;28;20145;-73
2023/08/18 02:19:19;;;;;;;4.03;2.50;;;;;;;21.03;87.94;101294.22;2057481;28;20082;-74
2023/08/18 02:20:21;;;;;;;6.78;2.88;;;;;;;21.04;87.92;101290.34;2049389;28;20790;-73
2023/08/18 02:21:22;;;;;;;8.57;2.83;;;;;;;21.04;87.76;101293.88;2033589;29;20136;-73
2023/08/18 02:22:30;;;;;;;6.47;2.25;;;;;;;21.04;87.78;101293.88;2034631;29;20041;-74
2023/08/18 02:23:32;;;;;;;7.47;2.58;;;;;;;21.05;87.78;101291.94;2047534;28;20878;-73
2023/08/18 02:24:33;;;;;;;6.20;2.65;;;;;;;21.04;87.51;101291.13;2049518;28;20047;-74
2023/08/18 02:25:35;;;;;;;8.05;2.40;;;;;;;21.04;87.53;101296.59;2049698;28;20150;-73
2023/08/18 02:26:42;;;;;;;4.53;2.10;;;;;;;21.04;87.56;101296.59;2065033;28;20030;-74
2023/08/18 02:27:45;;;;;;;5.85;2.25;;;;;;;21.00;87.60;101301.13;2049571;28;20032;-74
2023/08/18 02:28:47;;;;;;;9.82;2.70;;;;;;;20.99;87.66;101310.44;2050016;28;20791;-74
2023/08/18 02:29:49;;;;;;;9.82;2.72;;;;;;;20.96;87.76;101299.38;2065463;28;20030;-73
2023/08/18 02:31:01;;;;;;;5.95;2.58;;;;;;;20.96;87.65;101300.19;2041486;29;20036;-73
2023/08/18 02:32:07;;;;;;;7.43;3.15;;;;;;;20.97;87.84;101292.81;2037451;28;20036;-73
2023/08/18 02:33:11;;;;;;;7.15;2.60;;;;;;;20.97;87.99;101298.28;2049427;28;20134;-73
2023/08/18 02:34:13;;;;;;;8.00;3.10;;;;;;;20.96;87.91;101299.38;2049390;28;20091;-73
2023/08/18 02:35:14;;;;;;;6.75;2.72;;;;;;;20.96;87.83;101302.91;2042089;28;20070;-74
2023/08/18 02:36:15;;;;;;;4.72;2.65;;;;;;;20.96;88.11;101300.19;2049651;28;20046;-74
2023/08/18 02:37:17;;;;;;;7.05;2.63;;;;;;;20.97;87.77;101295.53;2057906;28;20541;-74
2023/08/18 02:38:18;;;;;;;4.95;2.67;;;;;;;20.96;88.03;101289.25;2049308;28;20054;-74
2023/08/18 02:39:22;;;;;;;5.22;2.60;;;;;;;20.98;87.75;101306.13;2041812;28;20187;-74
2023/08/18 02:40:24;;;;;;;5.57;2.42;;;;;;;20.99;87.72;101304.97;2057488;28;20042;-74
2023/08/18 02:41:26;;;;;;;4.70;2.55;;;;;;;20.98;87.88;101308.84;2049440;28;20032;-75
2023/08/18 02:42:28;;;;;;;6.07;2.90;;;;;;;21.00;87.64;101305.81;2049413;28;20032;-74
2023/08/18 02:43:32;;;;;;;4.85;2.30;;;;;;;20.97;87.74;101304.53;2049730;28;20044;-75
2023/08/18 02:44:34;;;;;;;5.72;2.40;;;;;;;20.98;87.75;101306.13;2041948;28;20039;-76
2023/08/18 02:45:36;;;;;;;4.45;2.40;;;;;;;20.99;87.47;101294.06;2033828;29;20784;-76
2023/08/18 02:46:38;;;;;;;6.50;2.45;;;;;;;20.99;87.55;101304.97;2041752;28;21310;-75
2023/08/18 02:47:40;;;;;;;4.65;2.28;;;;;;;21.00;87.59;101300.34;2057712;28;20106;-75
2023/08/18 02:48:42;;;;;;;6.97;3.03;;;;;;;20.99;87.56;101304.97;2057487;28;20036;-75
2023/08/18 02:49:43;;;;;;;7.05;2.58;;;;;;;20.98;87.54;101303.41;2041645;29;20139;-74
2023/08/18 02:50:46;;;;;;;4.90;2.50;;;;;;;21.00;87.35;101306.59;2034012;28;20044;-73
2023/08/18 02:51:48;;;;;;;6.70;2.80;;;;;;;20.96;87.31;101299.38;2041374;29;20155;-72
2023/08/18 02:52:49;;;;;;;6.13;3.03;;;;;;;21.00;87.44;101300.34;2041891;28;20048;-72
2023/08/18 02:53:54;;;;;;;5.47;2.65;;;;;;;21.00;87.31;101306.59;2033762;29;20040;-72
2023/08/18 02:54:59;;;;;;;5.95;2.58;;;;;;;20.99;87.29;101302.25;2035681;28;20044;-72
2023/08/18 02:56:01;;;;;;;7.75;2.70;;;;;;;20.99;87.18;101313.19;2040939;28;20834;-72
2023/08/18 02:57:03;;;;;;;5.05;2.65;;;;;;;20.99;87.14;101310.44;2041675;28;20135;-72
2023/08/18 02:58:07;;;;;;;4.45;2.67;;;;;;;20.98;87.28;101311.59;2049341;28;21243;-72
2023/08/18 02:59:11;;;;;;;4.95;2.40;;;;;;;20.96;87.21;101305.66;2049659;28;20040;-72
2023/08/18 03:00:13;;;;;;;7.20;2.85;;;;;;;20.97;87.15;101309.22;2049461;28;20049;-72
2023/08/18 03:01:15;;;;;;;6.72;3.00;;;;;;;20.96;87.27;101305.66;2025769;29;20040;-72
2023/08/18 03:02:17;;;;;;;5.38;2.50;;;;;;;20.96;87.13;101305.66;2034114;28;20038;-72
2023/08/18 03:03:22;;;;;;;5.65;2.55;;;;;;;20.96;87.25;101293.91;2041634;28;20055;-72
2023/08/18 03:04:27;;;;;;;5.90;2.63;;;;;;;20.96;87.05;101291.97;2049719;28;20031;-72
2023/08/18 03:05:37;;;;;;;6.53;2.80;;;;;;;20.94;87.23;101294.25;2056900;28;20038;-73
2023/08/18 03:06:39;;;;;;;4.60;2.50;;;;;;;20.96;87.27;101293.91;2057358;28;20026;-73
2023/08/18 03:07:41;;;;;;;4.75;2.83;;;;;;;20.92;87.36;101299.25;2041252;28;20036;-72
2023/08/18 03:08:42;;;;;;;8.68;2.75;;;;;;;20.92;87.10;101301.97;2033931;29;20028;-72
2023/08/18 03:09:44;;;;;;;10.95;2.58;;;;;;;20.93;87.43;101306.34;2041379;28;20067;-72
2023/08/18 03:10:57;;;;;;;8.65;3.00;;;;;;;20.92;87.13;101309.38;2041580;28;20775;-72
2023/08/18 03:11:59;;;;;;;9.98;3.00;;;;;;;20.93;87.27;101300.88;2049365;28;20039;-72
2023/08/18 03:13:05;;;;;;;7.55;3.20;;;;;;;20.92;87.21;101307.44;2033945;29;20357;-72
2023/08/18 03:14:08;;;;;;;6.82;3.00;;;;;;;20.94;87.23;101307.94;2035049;28;20167;-72
2023/08/18 03:15:11;;;;;;;5.00;3.03;;;;;;;20.94;87.24;101305.19;2049476;28;20914;-72
2023/08/18 03:16:13;;;;;;;7.28;2.80;;;;;;;20.94;87.24;101302.47;2041008;28;20036;-72
2023/08/18 03:17:14;;;;;;;4.32;2.70;;;;;;;20.92;87.25;101296.50;2041571;28;20028;-72
2023/08/18 03:18:15;;;;;;;5.30;2.72;;;;;;;20.89;87.18;101294.44;2049342;28;20091;-72
2023/08/18 03:19:18;;;;;;;6.18;2.67;;;;;;;20.90;87.17;101306.16;2049139;28;20047;-75
2023/08/18 03:20:20;;;;;;;5.00;2.55;;;;;;;20.90;87.28;101301.53;2049008;28;20045;-75
2023/08/18 03:21:23;;;;;;;4.72;2.72;;;;;;;20.90;87.24;101296.06;2048644;28;20050;-75
2023/08/18 03:22:28;;;;;;;8.80;3.20;;;;;;;20.89;87.08;101296.38;2049438;28;20031;-75
2023/08/18 03:23:29;;;;;;;7.43;2.80;;;;;;;20.89;87.21;101294.44;2054046;28;20039;-74
2023/08/18 03:24:31;;;;;;;5.57;3.00;;;;;;;20.90;87.14;101300.69;2041181;28;20040;-75
2023/08/18 03:25:38;;;;;;;6.00;2.80;;;;;;;20.88;87.00;101292.84;2042849;28;20021;-74
2023/08/18 03:26:39;;;;;;;6.20;3.25;;;;;;;20.90;87.10;101298.78;2057057;28;20046;-73
2023/08/18 03:27:42;;;;;;;6.43;3.10;;;;;;;20.90;86.79;101296.06;2057397;28;20065;-73
2023/08/18 03:28:45;;;;;;;6.07;3.03;;;;;;;20.90;86.93;101297.97;2033745;29;20943;-72
2023/08/18 03:29:52;;;;;;;5.80;2.97;;;;;;;20.90;87.08;101303.44;2026519;28;20064;-73
2023/08/18 03:31:01;;;;;;;5.68;3.13;;;;;;;20.90;86.98;101304.25;2049765;28;20028;-72
2023/08/18 03:32:06;;;;;;;12.18;3.47;;;;;;;20.86;86.92;101297.84;2049429;28;20173;-73
2023/08/18 03:33:08;;;;;;;6.72;3.05;;;;;;;20.89;86.79;101301.84;2049373;28;20047;-73
2023/08/18 03:34:12;;;;;;;9.45;3.20;;;;;;;20.89;86.86;101299.09;2041296;29;20116;-73
2023/08/18 03:35:14;;;;;;;9.73;3.70;;;;;;;20.89;86.98;101297.16;2033620;28;20128;-73
2023/08/18 03:36:16;;;;;;;10.88;3.30;;;;;;;20.89;86.88;101294.44;2049264;28;21013;-72
2023/08/18 03:37:20;;;;;;;8.70;3.38;;;;;;;20.89;86.99;101288.19;2041279;28;20867;-72
2023/08/18 03:38:22;;;;;;;7.72;3.42;;;;;;;20.88;86.88;101301.03;2041229;29;20139;-72
2023/08/18 03:39:27;;;;;;;8.90;3.63;;;;;;;20.90;86.95;101292.50;2041543;28;20036;-72
2023/08/18 03:40:31;;;;;;;13.43;3.72;;;;;;;20.90;86.99;101306.16;2049354;28;20885;-72
2023/08/18 03:41:33;;;;;;;8.32;3.58;;;;;;;20.89;87.16;101291.72;2056974;28;20035;-72
2023/08/18 03:42:38;;;;;;;10.02;4.00;;;;;;;20.89;87.08;101294.44;2049345;28;20047;-73
2023/08/18 03:43:40;;;;;;;11.23;3.75;;;;;;;20.87;87.30;101301.38;2033401;29;20048;-74
2023/08/18 03:44:42;;;;;;;9.35;3.60;;;;;;;20.81;87.36;101301.56;2041740;28;20116;-74
2023/08/18 03:45:45;;;;;;;10.85;5.32;;;;;;;20.82;87.55;101305.91;2041553;28;20024;-74
2023/08/18 03:46:47;;;;;;;7.15;3.40;;;;;;;20.82;87.71;101311.34;2056869;28;20031;-74
2023/08/18 03:47:51;;;;;;;7.88;3.97;;;;;;;20.82;87.70;101305.09;2057272;28;20023;-72
2023/08/18 03:48:56;;;;;;;13.98;3.53;;;;;;;20.82;87.81;101307.81;2049120;28;20042;-72
2023/08/18 03:50:00;;;;;;;9.55;4.35;;;;;;;20.82;87.91;101316.81;2033143;28;20028;-72
2023/08/18 03:51:01;;;;;;;10.38;3.78;;;;;;;20.83;87.76;101314.88;2033845;28;20048;-72
2023/08/18 03:52:06;;;;;;;7.10;4.10;;;;;;;20.81;87.97;101304.31;2041138;28;20035;-72
2023/08/18 03:53:10;;;;;;;9.80;3.80;;;;;;;20.80;88.02;101305.41;2041595;28;20775;-75
2023/08/18 03:54:16;;;;;;;12.63;4.00;;;;;;;20.82;88.13;101316.03;2034829;28;20125;-74
2023/08/18 03:55:20;;;;;;;16.08;4.40;;;;;;;20.81;88.10;101309.78;2033638;28;20036;-73
2023/08/18 03:56:21;;;;;;;14.82;4.10;;;;;;;20.80;88.11;101310.09;2041905;28;20028;-72
2023/08/18 03:57:23;;;;;;;10.73;4.07;;;;;;;20.81;88.07;101312.50;2057122;28;20031;-72
2023/08/18 03:58:25;;;;;;;8.43;3.83;;;;;;;20.82;88.02;101316.03;2048655;28;20876;-72
2023/08/18 03:59:30;;;;;;;10.65;3.75;;;;;;;20.81;88.01;101312.50;2041234;28;20047;-73
2023/08/18 04:00:32;;;;;;;12.77;4.20;;;;;;;20.81;87.93;101309.78;2049932;28;20070;-74
2023/08/18 04:01:34;;;;;;;8.55;3.90;;;;;;;20.80;87.98;101307.34;2065061;28;20157;-74
2023/08/18 04:02:39;;;;;;;10.70;4.20;;;;;;;20.79;88.05;101316.69;2056788;28;20158;-74
2023/08/18 04:03:43;;;;;;;8.40;3.78;;;;;;;20.77;88.14;101308.00;2049556;28;20866;-75
2023/08/18 04:04:47;;;;;;;14.88;4.50;;;;;;;20.78;88.01;101310.44;2048853;28;20031;-74
2023/08/18 04:05:50;;;;;;;10.82;4.10;;;;;;;20.79;88.02;101313.94;2048997;28;20035;-74
2023/08/18 04:06:54;;;;;;;9.25;4.45;;;;;;;20.79;88.08;101314.75;2049557;28;20863;-73
2023/08/18 04:07:57;;;;;;;9.57;3.90;;;;;;;20.80;88.16;101308.16;2053226;28;20120;-72
2023/08/18 04:09:09;;;;;;;11.35;4.07;;;;;;;20.81;88.21;101311.69;2049128;28;20039;-72
2023/08/18 04:10:11;;;;;;;13.75;4.43;;;;;;;20.81;88.07;101308.97;2041067;29;20092;-72
2023/08/18 04:11:12;;;;;;;12.52;4.63;;;;;;;20.81;88.17;101306.22;2041178;28;20036;-72
2023/08/18 04:12:14;;;;;;;13.20;4.40;;;;;;;20.83;88.11;101312.16;2033112;29;20853;-72
2023/08/18 04:13:18;;;;;;;13.88;4.32;;;;;;;20.83;88.03;101312.94;2041590;28;20036;-72
2023/08/18 04:14:21;;;;;;;10.65;4.50;;;;;;;20.84;88.07;101308.31;2049120;28;20070;-72
2023/08/18 04:15:25;;;;;;;12.13;4.22;;;;;;;20.86;88.02;101311.50;2056919;28;20020;-72
2023/08/18 04:16:31;;;;;;;16.73;5.07;;;;;;;20.86;88.07;101314.22;2049092;28;20044;-73
2023/08/18 04:17:33;;;;;;;9.27;4.57;;;;;;;20.88;88.15;101319.38;2041593;28;20143;-74
2023/08/18 04:18:34;;;;;;;10.63;4.55;;;;;;;20.86;88.25;101311.50;2040997;28;20044;-74
2023/08/18 04:19:36;;;;;;;15.43;4.53;;;;;;;20.88;88.07;101316.66;2049919;28;20048;-74
2023/08/18 04:20:38;;;;;;;13.80;4.35;;;;;;;20.88;88.04;101311.97;2042816;28;20044;-73
2023/08/18 04:21:40;;;;;;;15.05;5.00;;;;;;;20.88;88.14;101320.19;2034423;29;20045;-73
2023/08/18 04:22:43;;;;;;;12.70;5.10;;;;;;;20.89;87.95;101316.31;2035337;28;20076;-72
2023/08/18 04:23:51;;;;;;;13.50;5.03;;;;;;;20.90;88.13;101325.31;2050901;28;20043;-72
2023/08/18 04:24:52;;;;;;;14.35;4.90;;;;;;;20.89;87.93;101316.31;2059027;28;20047;-72
2023/08/18 04:25:56;;;;;;;12.60;4.95;;;;;;;20.87;88.04;101312.28;2056473;28;20087;-72
2023/08/18 04:27:00;;;;;;;11.77;4.53;;;;;;;20.87;88.12;101318.59;2058664;28;20246;-73
2023/08/18 04:28:03;;;;;;;11.70;4.60;;;;;;;20.87;88.03;101318.59;2050688;28;20167;-72
2023/08/18 04:29:06;;;;;;;17.90;5.45;;;;;;;20.88;88.05;101327.59;2035167;28;20071;-72
2023/08/18 04:30:11;;;;;;;17.08;5.43;;;;;;;20.88;88.12;101322.91;2042363;28;21295;-73
2023/08/18 04:31:17;;;;;;;18.63;5.80;;;;;;;20.88;88.27;101320.19;2047582;28;20028;-74
2023/08/18 04:32:27;;;;;;;17.30;5.55;;;;;;;20.89;88.12;101326.44;2041232;28;20028;-74
2023/08/18 04:33:30;;;;;;;14.32;4.97;;;;;;;20.90;88.16;101322.56;2042726;28;20147;-75
2023/08/18 04:34:35;;;;;;;18.73;5.60;;;;;;;20.89;88.31;101324.50;2047219;28;20091;-72
2023/08/18 04:35:38;;;;;;;13.27;5.78;;;;;;;20.87;88.24;101329.53;2042280;28;20094;-71
2023/08/18 04:36:42;;;;;;;16.90;5.72;;;;;;;20.87;88.50;101329.53;2042363;28;20044;-72
2023/08/18 04:37:47;;;;;;;15.35;5.22;;;;;;;20.88;88.49;101331.13;2058801;28;20031;-72
2023/08/18 04:38:48;;;;;;;13.23;5.40;;;;;;;20.91;88.57;101324.19;2066308;28;20043;-72
2023/08/18 04:39:57;;;;;;;14.70;4.95;;;;;;;20.90;88.73;101323.41;2050547;28;20031;-73
2023/08/18 04:41:03;;;;;;;14.93;5.03;;;;;;;20.93;88.54;101322.75;2027802;29;20033;-73
2023/08/18 04:42:08;;;;;;;14.98;4.93;;;;;;;20.93;88.65;101328.19;2043552;28;20847;-73
2023/08/18 04:43:11;;;;;;;14.27;5.03;;;;;;;20.96;88.83;101330.25;2061169;28;20141;-74
2023/08/18 04:44:15;;;;;;;13.32;5.13;;;;;;;20.96;88.66;101335.72;2074373;28;20026;-73
2023/08/18 04:45:18;;;;;;;14.20;5.85;;;;;;;20.97;88.68;101337.34;2073656;28;20034;-74
2023/08/18 04:46:20;;;;;;;16.83;6.03;;;;;;;21.01;88.68;101340.22;2074487;28;20033;-74
2023/08/18 04:47:25;;;;;;;16.58;5.45;;;;;;;21.00;88.62;101338.63;2065911;28;20112;-72
2023/08/18 04:48:30;;;;;;;17.90;5.53;;;;;;;21.01;88.96;101341.00;2058242;28;20067;-74
2023/08/18 04:49:41;;;;;;;16.60;6.10;;;;;;;21.02;88.76;101345.34;2058498;28;20027;-74
2023/08/18 04:50:42;;;;;;;17.30;5.07;;;;;;;21.02;88.79;101348.06;2058118;28;20150;-72
2023/08/18 04:51:45;;;;;;;14.48;5.60;;;;;;;21.04;88.67;101358.69;2042681;28;20039;-73
2023/08/18 04:52:48;;;;;;;11.40;5.75;;;;;;;21.04;88.92;101356.75;2050303;28;20054;-75
2023/08/18 04:53:50;;;;;;;12.88;5.43;;;;;;;21.05;89.09;101352.09;2050138;28;20924;-74
2023/08/18 04:54:54;;;;;;;13.32;5.20;;;;;;;21.06;89.15;101365.44;2042549;28;21150;-74
2023/08/18 04:55:56;;;;;;;17.38;5.75;;;;;;;21.05;89.09;101352.88;2029074;28;20045;-73
2023/08/18 04:57:03;;;;;;;18.02;6.35;;;;;;;21.05;89.17;101346.63;2049935;28;20110;-73
2023/08/18 04:58:09;;;;;;;11.35;5.15;;;;;;;21.05;89.33;101344.69;2066056;28;20034;-74
2023/08/18 04:59:10;;;;;;;12.63;5.63;;;;;;;21.05;89.23;101347.41;2070721;28;20152;-74